createdAt,value
2023-03-03T00:00:12.702Z,1.70
2023-03-03T00:02:41.822Z,1.70
2023-03-03T00:05:09.142Z,1.70
2023-03-03T00:07:38.096Z,1.80
2023-03-03T00:10:10.031Z,1.70
2023-03-03T00:12:40.573Z,1.70
2023-03-03T00:15:21.585Z,1.60
2023-03-03T00:17:51.125Z,1.50
2023-03-03T00:20:29.962Z,1.60
2023-03-03T00:22:59.104Z,1.60
2023-03-03T00:25:33.131Z,1.70
2023-03-03T00:28:30.413Z,1.60
2023-03-03T00:30:59.831Z,1.60
2023-03-03T00:33:28.628Z,1.70
2023-03-03T00:36:11.183Z,1.70
2023-03-03T00:38:37.933Z,1.80
2023-03-03T00:41:08.716Z,1.80
2023-03-03T00:43:36.208Z,1.80
2023-03-03T00:46:05.673Z,1.80
2023-03-03T00:48:38.717Z,1.80
2023-03-03T00:51:23.062Z,1.80
2023-03-03T00:53:50.184Z,1.80
2023-03-03T00:56:17.013Z,1.80
2023-03-03T00:58:48.120Z,1.90
2023-03-03T01:01:15.857Z,1.90
2023-03-03T01:03:42.769Z,1.80
2023-03-03T01:06:10.027Z,1.90
2023-03-03T01:08:38.968Z,1.90
2023-03-03T01:11:19.770Z,1.90
2023-03-03T01:13:49.217Z,1.90
2023-03-03T01:16:16.145Z,1.90
2023-03-03T01:18:43.041Z,1.80
2023-03-03T01:21:10.756Z,1.70
2023-03-03T01:23:37.613Z,1.70
2023-03-03T01:26:07.072Z,1.70
2023-03-03T01:28:34.491Z,1.70
2023-03-03T01:31:02.919Z,1.70
2023-03-03T01:33:29.939Z,1.70
2023-03-03T01:35:56.979Z,1.70
2023-03-03T01:38:23.884Z,1.70
2023-03-03T01:40:56.931Z,1.70
2023-03-03T01:43:23.857Z,1.70
2023-03-03T01:45:50.683Z,1.60
2023-03-03T01:48:36.890Z,1.60
2023-03-03T01:51:14.892Z,1.60
2023-03-03T01:53:46.889Z,1.70
2023-03-03T01:56:13.897Z,1.70
2023-03-03T01:59:01.671Z,1.70
2023-03-03T02:01:28.934Z,1.70
2023-03-03T02:03:58.306Z,1.70
2023-03-03T02:06:27.852Z,1.60
2023-03-03T02:08:59.978Z,1.70
2023-03-03T02:11:31.500Z,1.60
2023-03-03T02:13:58.324Z,1.60
2023-03-03T02:16:25.351Z,1.70
2023-03-03T02:18:52.351Z,1.70
2023-03-03T02:21:23.286Z,1.70
2023-03-03T02:24:29.884Z,1.50
2023-03-03T02:26:56.767Z,1.50
2023-03-03T02:29:23.564Z,1.50
2023-03-03T02:31:50.474Z,1.60
2023-03-03T02:34:17.793Z,1.40
2023-03-03T02:36:46.987Z,1.40
2023-03-03T02:39:24.083Z,1.40
2023-03-03T02:42:06.711Z,1.40
2023-03-03T02:44:36.041Z,1.30
2023-03-03T02:47:05.096Z,1.30
2023-03-03T02:49:33.862Z,1.30
2023-03-03T02:52:04.561Z,1.20
2023-03-03T02:54:31.343Z,1.10
2023-03-03T02:57:00.869Z,1.00
2023-03-03T02:59:29.962Z,1.00
2023-03-03T03:01:56.843Z,0.90
2023-03-03T03:04:27.305Z,0.90
2023-03-03T03:06:54.338Z,0.80
2023-03-03T03:09:24.712Z,0.70
2023-03-03T03:11:51.509Z,0.70
2023-03-03T03:14:18.297Z,0.70
2023-03-03T03:16:47.684Z,0.60
2023-03-03T03:19:14.704Z,0.50
2023-03-03T03:21:43.987Z,0.50
2023-03-03T03:24:10.776Z,0.40
2023-03-03T03:26:37.533Z,0.40
2023-03-03T03:29:04.350Z,0.50
2023-03-03T03:31:33.748Z,0.60
2023-03-03T03:34:00.702Z,0.60
2023-03-03T03:36:28.407Z,0.60
2023-03-03T03:38:57.930Z,0.60
2023-03-03T03:41:24.713Z,0.60
2023-03-03T03:43:51.587Z,0.70
2023-03-03T03:46:20.791Z,0.80
2023-03-03T03:48:47.667Z,0.80
2023-03-03T03:51:14.541Z,0.80
2023-03-03T03:53:44.045Z,0.80
2023-03-03T03:56:10.831Z,0.80
2023-03-03T03:58:37.636Z,0.90
2023-03-03T04:01:10.472Z,0.90
2023-03-03T04:03:37.284Z,0.90
2023-03-03T04:06:04.164Z,0.90
2023-03-03T04:08:30.951Z,0.80
2023-03-03T04:10:59.904Z,0.80
2023-03-03T04:13:28.986Z,0.60
2023-03-03T04:15:55.865Z,0.50
2023-03-03T04:18:22.690Z,0.30
2023-03-03T04:20:52.858Z,0.40
2023-03-03T04:23:19.667Z,0.30
2023-03-03T04:25:49.791Z,0.20
2023-03-03T04:28:16.892Z,0.20
2023-03-03T04:30:46.108Z,0.10
2023-03-03T04:33:15.146Z,0.10
2023-03-03T04:35:42.006Z,0.10
2023-03-03T04:38:11.021Z,0.00
2023-03-03T04:40:43.160Z,-0.10
2023-03-03T04:43:10.311Z,0.00
2023-03-03T04:45:39.905Z,-0.10
2023-03-03T04:48:09.377Z,-0.20
2023-03-03T04:50:36.146Z,-0.20
2023-03-03T04:53:02.993Z,-0.20
2023-03-03T04:55:29.760Z,-0.20
2023-03-03T04:57:58.670Z,-0.10
2023-03-03T05:00:27.817Z,-0.10
2023-03-03T05:02:54.662Z,-0.10
2023-03-03T05:05:21.424Z,-0.20
2023-03-03T05:07:48.212Z,-0.10
2023-03-03T05:10:15.075Z,-0.20
2023-03-03T05:12:41.915Z,-0.30
2023-03-03T05:15:11.361Z,-0.40
2023-03-03T05:17:40.686Z,-0.50
2023-03-03T05:20:11.195Z,-0.60
2023-03-03T05:22:40.182Z,-0.50
2023-03-03T05:25:12.729Z,-0.50
2023-03-03T05:27:39.639Z,-0.50
2023-03-03T05:30:09.688Z,-0.50
2023-03-03T05:32:36.520Z,-0.50
2023-03-03T05:35:06.266Z,-0.50
2023-03-03T05:37:33.089Z,-0.60
2023-03-03T05:39:59.835Z,-0.70
2023-03-03T05:42:26.888Z,-0.70
2023-03-03T05:44:53.776Z,-0.60
2023-03-03T05:47:20.520Z,-0.60
2023-03-03T05:49:49.858Z,-0.60
2023-03-03T05:52:16.616Z,-0.50
2023-03-03T05:54:45.692Z,-0.60
2023-03-03T05:57:17.192Z,-0.60
2023-03-03T05:59:46.234Z,-0.50
2023-03-03T06:02:13.106Z,-0.60
2023-03-03T06:04:42.115Z,-0.70
2023-03-03T06:07:11.378Z,-0.60
2023-03-03T06:09:43.130Z,-0.70
2023-03-03T06:12:12.378Z,-0.80
2023-03-03T06:14:39.338Z,-0.80
2023-03-03T06:17:08.293Z,-0.80
2023-03-03T06:19:36.597Z,-0.70
2023-03-03T06:22:03.755Z,-0.70
2023-03-03T06:24:31.666Z,-0.90
2023-03-03T06:26:58.858Z,-0.90
2023-03-03T06:29:30.385Z,-0.90
2023-03-03T06:32:04.987Z,-0.90
2023-03-03T06:34:34.255Z,-0.90
2023-03-03T06:37:01.178Z,-0.90
2023-03-03T06:39:28.249Z,-0.90
2023-03-03T06:41:55.055Z,-0.90
2023-03-03T06:44:23.933Z,-0.90
2023-03-03T06:46:50.780Z,-0.80
2023-03-03T06:49:17.596Z,-0.70
2023-03-03T06:51:46.314Z,-0.80
2023-03-03T06:54:14.004Z,-0.80
2023-03-03T06:56:41.278Z,-0.80
2023-03-03T06:59:16.314Z,-0.70
2023-03-03T07:01:43.588Z,-0.70
2023-03-03T07:04:31.675Z,-0.70
2023-03-03T07:07:05.887Z,-0.80
2023-03-03T07:09:32.705Z,-0.70
2023-03-03T07:12:28.538Z,-0.60
2023-03-03T07:15:18.546Z,-0.60
2023-03-03T07:17:49.792Z,-0.60
2023-03-03T07:20:25.574Z,-0.50
2023-03-03T07:22:55.148Z,-0.50
2023-03-03T07:25:30.898Z,-0.40
2023-03-03T07:28:28.679Z,-0.40
2023-03-03T07:30:56.638Z,-0.40
2023-03-03T07:33:27.152Z,-0.40
2023-03-03T07:35:58.276Z,-0.40
2023-03-03T07:38:41.830Z,-0.30
2023-03-03T07:41:14.820Z,-0.40
2023-03-03T07:44:10.191Z,-0.40
2023-03-03T07:46:43.794Z,-0.30
2023-03-03T07:49:21.746Z,-0.20
2023-03-03T07:51:52.580Z,-0.10
2023-03-03T07:54:42.448Z,-0.10
2023-03-03T07:57:17.419Z,0.10
2023-03-03T07:59:49.269Z,0.00
2023-03-03T08:02:57.597Z,0.10
2023-03-03T08:05:29.806Z,0.00
2023-03-03T08:08:10.082Z,0.00
2023-03-03T08:10:50.033Z,0.10
2023-03-03T08:13:17.814Z,0.00
2023-03-03T08:15:45.268Z,0.10
2023-03-03T08:18:39.019Z,0.10
2023-03-03T08:21:15.322Z,0.10
2023-03-03T08:23:44.836Z,0.10
2023-03-03T08:26:14.974Z,0.20
2023-03-03T08:28:41.790Z,0.30
2023-03-03T08:31:20.049Z,0.30
2023-03-03T08:33:51.973Z,0.40
2023-03-03T08:36:19.104Z,0.50
2023-03-03T08:38:50.461Z,0.50
2023-03-03T08:41:17.306Z,0.50
2023-03-03T08:43:45.407Z,0.50
2023-03-03T08:46:12.356Z,0.50
2023-03-03T08:48:39.274Z,0.50
2023-03-03T08:51:08.353Z,0.50
2023-03-03T08:53:39.851Z,0.60
2023-03-03T08:56:10.410Z,0.70
2023-03-03T08:58:37.223Z,0.70
2023-03-03T09:01:08.471Z,0.80
2023-03-03T09:03:35.263Z,0.90
2023-03-03T09:06:04.193Z,1.00
2023-03-03T09:08:30.971Z,1.00
2023-03-03T09:10:57.801Z,1.00
2023-03-03T09:13:27.366Z,1.00
2023-03-03T09:15:54.222Z,1.00
2023-03-03T09:18:22.836Z,1.10
2023-03-03T09:20:50.687Z,1.00
2023-03-03T09:23:38.162Z,1.10
2023-03-03T09:26:24.270Z,1.00
2023-03-03T09:28:51.026Z,1.00
2023-03-03T09:31:26.979Z,1.00
2023-03-03T09:33:57.740Z,1.00
2023-03-03T09:36:35.934Z,1.10
2023-03-03T09:39:13.297Z,1.10
2023-03-03T09:42:04.935Z,1.10
2023-03-03T09:45:00.915Z,1.20
2023-03-03T09:47:42.080Z,1.20
2023-03-03T09:50:36.738Z,1.30
2023-03-03T09:53:19.537Z,1.40
2023-03-03T09:55:51.577Z,1.20
2023-03-03T09:58:45.641Z,1.20
2023-03-03T10:01:27.619Z,1.30
2023-03-03T10:04:15.722Z,1.10
2023-03-03T10:07:08.367Z,1.00
2023-03-03T10:09:54.253Z,0.90
2023-03-03T10:12:30.717Z,1.00
2023-03-03T10:14:57.478Z,1.00
2023-03-03T10:17:36.502Z,1.00
2023-03-03T10:20:47.497Z,1.00
2023-03-03T10:23:22.077Z,0.90
2023-03-03T10:26:06.431Z,0.90
2023-03-03T10:28:48.292Z,0.90
2023-03-03T10:31:35.634Z,0.90
2023-03-03T10:34:22.969Z,1.00
2023-03-03T10:37:22.375Z,1.00
2023-03-03T10:40:05.849Z,1.00
2023-03-03T10:42:45.889Z,1.00
2023-03-03T10:45:30.891Z,1.20
2023-03-03T10:48:29.911Z,1.20
2023-03-03T10:51:16.296Z,1.30
2023-03-03T10:54:22.207Z,1.30
2023-03-03T10:57:23.020Z,1.40
2023-03-03T11:00:05.601Z,1.40
2023-03-03T11:03:12.320Z,1.30
2023-03-03T11:06:02.608Z,1.20
2023-03-03T11:09:02.003Z,1.10
2023-03-03T11:11:41.551Z,1.00
2023-03-03T11:14:14.438Z,1.00
2023-03-03T11:16:53.628Z,1.00
2023-03-03T11:19:38.586Z,0.90
2023-03-03T11:22:31.527Z,0.90
2023-03-03T11:25:03.684Z,0.90
2023-03-03T11:27:33.188Z,1.00
2023-03-03T11:30:03.494Z,1.10
2023-03-03T11:32:55.267Z,1.20
2023-03-03T11:35:35.062Z,1.10
2023-03-03T11:38:29.190Z,1.10
2023-03-03T11:41:09.447Z,1.10
2023-03-03T11:43:47.942Z,1.10
2023-03-03T11:46:31.166Z,1.10
2023-03-03T11:49:05.285Z,1.10
2023-03-03T11:51:56.885Z,0.90
2023-03-03T11:54:40.357Z,1.00
2023-03-03T11:57:12.983Z,1.10
2023-03-03T12:00:08.378Z,1.10
2023-03-03T12:03:14.660Z,1.20
2023-03-03T12:05:50.616Z,1.30
2023-03-03T12:08:20.338Z,1.40
2023-03-03T12:11:28.459Z,1.40
2023-03-03T12:14:03.924Z,1.40
2023-03-03T12:16:55.199Z,1.50
2023-03-03T12:19:26.620Z,1.50
2023-03-03T12:22:18.091Z,1.40
2023-03-03T12:24:56.673Z,1.20
2023-03-03T12:27:29.542Z,1.20
2023-03-03T12:30:14.337Z,1.20
2023-03-03T12:33:00.367Z,1.30
2023-03-03T12:35:35.606Z,1.30
2023-03-03T12:38:20.678Z,1.30
2023-03-03T12:40:59.380Z,1.40
2023-03-03T12:43:41.941Z,1.40
2023-03-03T12:46:20.740Z,1.40
2023-03-03T12:48:47.686Z,1.50
2023-03-03T12:51:33.145Z,1.50
2023-03-03T12:54:14.507Z,1.40
2023-03-03T12:56:46.687Z,1.40
2023-03-03T12:59:19.792Z,1.40
2023-03-03T13:02:31.022Z,1.40
2023-03-03T13:05:02.638Z,1.30
2023-03-03T13:07:53.692Z,1.30
2023-03-03T13:10:32.758Z,1.20
2023-03-03T13:13:01.921Z,1.30
2023-03-03T13:15:55.419Z,1.30
2023-03-03T13:18:34.766Z,1.30
2023-03-03T13:21:27.215Z,1.20
2023-03-03T13:24:06.292Z,1.30
2023-03-03T13:26:47.933Z,1.20
2023-03-03T13:29:35.507Z,1.20
2023-03-03T13:32:43.284Z,1.10
2023-03-03T13:35:40.651Z,1.10
2023-03-03T13:38:10.032Z,1.10
2023-03-03T13:40:39.966Z,1.20
2023-03-03T13:43:20.236Z,1.20
2023-03-03T13:45:59.425Z,1.30
2023-03-03T13:48:32.220Z,1.40
2023-03-03T13:51:27.991Z,1.30
2023-03-03T13:54:05.039Z,1.30
2023-03-03T13:56:49.739Z,1.30
2023-03-03T13:59:21.700Z,1.40
2023-03-03T14:02:10.203Z,1.40
2023-03-03T14:04:48.379Z,1.30
2023-03-03T14:07:21.675Z,1.30
2023-03-03T14:09:57.802Z,1.30
2023-03-03T14:12:45.778Z,1.30
2023-03-03T14:15:26.667Z,1.00
2023-03-03T14:18:05.600Z,0.90
2023-03-03T14:20:35.838Z,0.80
2023-03-03T14:23:23.483Z,0.90
2023-03-03T14:25:57.309Z,1.00
2023-03-03T14:28:28.213Z,1.10
2023-03-03T14:31:03.166Z,1.20
2023-03-03T14:33:31.595Z,1.30
2023-03-03T14:35:58.469Z,1.40
2023-03-03T14:38:34.603Z,1.40
2023-03-03T14:41:10.208Z,1.40
2023-03-03T14:43:42.286Z,1.40
2023-03-03T14:46:27.535Z,1.40
2023-03-03T14:48:58.344Z,1.50
2023-03-03T14:51:49.239Z,1.40
2023-03-03T14:54:27.420Z,1.20
2023-03-03T14:57:15.271Z,1.10
2023-03-03T14:59:56.380Z,1.20
2023-03-03T15:02:39.515Z,1.20
2023-03-03T15:05:27.121Z,1.20
2023-03-03T15:08:14.525Z,1.10
2023-03-03T15:10:45.242Z,1.00
2023-03-03T15:13:21.080Z,1.00
2023-03-03T15:15:59.923Z,0.90
2023-03-03T15:18:30.200Z,0.90
2023-03-03T15:21:07.334Z,0.70
2023-03-03T15:23:51.751Z,0.80
2023-03-03T15:26:33.443Z,0.90
2023-03-03T15:29:06.365Z,0.90
2023-03-03T15:31:45.256Z,1.00
2023-03-03T15:34:23.059Z,1.00
2023-03-03T15:37:08.193Z,1.00
2023-03-03T15:39:40.845Z,1.00
2023-03-03T15:42:15.628Z,1.00
2023-03-03T15:44:52.657Z,1.00
2023-03-03T15:47:49.764Z,1.00
2023-03-03T15:50:27.513Z,1.10
2023-03-03T15:53:09.496Z,1.10
2023-03-03T15:56:02.702Z,1.10
2023-03-03T15:58:53.489Z,1.20
2023-03-03T16:01:38.982Z,1.10
2023-03-03T16:04:11.446Z,1.10
2023-03-03T16:06:49.818Z,1.20
2023-03-03T16:09:20.144Z,1.20
2023-03-03T16:12:09.684Z,0.90
2023-03-03T16:14:52.854Z,0.80
2023-03-03T16:17:47.677Z,0.80
2023-03-03T16:20:25.740Z,0.70
2023-03-03T16:23:19.846Z,0.70
2023-03-03T16:25:54.019Z,0.80
2023-03-03T16:28:38.825Z,0.90
2023-03-03T16:31:13.351Z,0.90
2023-03-03T16:34:04.948Z,0.90
2023-03-03T16:36:54.942Z,0.90
2023-03-03T16:39:32.954Z,1.00
2023-03-03T16:42:13.986Z,0.90
2023-03-03T16:44:50.107Z,0.70
2023-03-03T16:47:27.274Z,0.60
2023-03-03T16:50:19.583Z,0.50
2023-03-03T16:53:01.275Z,0.50
2023-03-03T16:55:32.670Z,0.50
2023-03-03T16:58:25.657Z,0.60
2023-03-03T17:00:56.644Z,0.70
2023-03-03T17:03:32.416Z,0.60
2023-03-03T17:06:34.178Z,0.50
2023-03-03T17:09:32.227Z,0.50
2023-03-03T17:12:14.485Z,0.50
2023-03-03T17:14:50.636Z,0.50
2023-03-03T17:17:33.412Z,0.60
2023-03-03T17:20:18.642Z,0.60
2023-03-03T17:23:11.987Z,0.70
2023-03-03T17:25:58.028Z,0.70
2023-03-03T17:28:31.512Z,0.70
2023-03-03T17:31:13.587Z,0.70
2023-03-03T17:33:45.697Z,0.70
2023-03-03T17:36:31.563Z,0.40
2023-03-03T17:39:08.380Z,0.30
2023-03-03T17:42:13.649Z,0.40
2023-03-03T17:45:05.987Z,0.20
2023-03-03T17:47:49.730Z,0.20
2023-03-03T17:50:33.682Z,0.20
2023-03-03T17:53:15.545Z,0.20
2023-03-03T17:56:00.968Z,0.20
2023-03-03T17:58:27.737Z,0.20
2023-03-03T18:01:15.465Z,0.10
2023-03-03T18:03:45.360Z,0.20
2023-03-03T18:06:25.833Z,0.30
2023-03-03T18:09:13.661Z,0.30
2023-03-03T18:12:15.156Z,0.30
2023-03-03T18:15:02.193Z,0.30
2023-03-03T18:17:38.342Z,0.40
2023-03-03T18:20:29.906Z,0.40
2023-03-03T18:22:56.769Z,0.40
2023-03-03T18:25:24.349Z,0.20
2023-03-03T18:28:00.000Z,0.20
2023-03-03T18:30:28.367Z,0.20
2023-03-03T18:32:57.958Z,0.20
2023-03-03T18:35:33.964Z,0.30
2023-03-03T18:38:15.919Z,0.40
2023-03-03T18:41:04.579Z,0.30
2023-03-03T18:43:43.633Z,0.40
2023-03-03T18:46:22.856Z,0.30
2023-03-03T18:48:49.840Z,0.30
2023-03-03T18:51:34.679Z,0.30
2023-03-03T18:54:30.592Z,0.30
2023-03-03T18:56:57.894Z,0.30
2023-03-03T18:59:30.920Z,0.20
2023-03-03T19:02:12.958Z,0.30
2023-03-03T19:05:11.851Z,0.30
2023-03-03T19:07:41.653Z,0.40
2023-03-03T19:10:20.714Z,0.40
2023-03-03T19:12:51.661Z,0.30
2023-03-03T19:15:34.436Z,0.30
2023-03-03T19:18:14.281Z,0.40
2023-03-03T19:20:42.134Z,0.30
2023-03-03T19:23:16.099Z,0.30
2023-03-03T19:25:44.949Z,0.40
2023-03-03T19:28:29.140Z,0.40
2023-03-03T19:31:18.725Z,0.40
2023-03-03T19:34:07.702Z,0.50
2023-03-03T19:36:54.760Z,0.50
2023-03-03T19:39:36.589Z,0.50
2023-03-03T19:42:22.055Z,0.50
2023-03-03T19:45:02.205Z,0.40
2023-03-03T19:47:48.525Z,0.40
2023-03-03T19:50:21.349Z,0.40
2023-03-03T19:53:25.433Z,0.50
2023-03-03T19:56:06.147Z,0.50
2023-03-03T19:58:56.007Z,0.50
2023-03-03T20:01:56.896Z,0.60
2023-03-03T20:04:54.027Z,0.50
2023-03-03T20:07:24.155Z,0.40
2023-03-03T20:10:22.934Z,0.40
2023-03-03T20:13:08.234Z,0.40
2023-03-03T20:16:07.834Z,0.40
2023-03-03T20:19:02.516Z,0.40
2023-03-03T20:21:35.792Z,0.50
2023-03-03T20:24:34.849Z,0.50
2023-03-03T20:27:09.938Z,0.50
2023-03-03T20:29:51.956Z,0.60
2023-03-03T20:32:35.969Z,0.60
2023-03-03T20:35:40.312Z,0.60
2023-03-03T20:38:12.595Z,0.60
2023-03-03T20:41:00.544Z,0.60
2023-03-03T20:43:36.287Z,0.70
2023-03-03T20:46:16.992Z,0.80
2023-03-03T20:49:05.898Z,0.70
2023-03-03T20:51:43.553Z,0.70
2023-03-03T20:54:19.547Z,0.70
2023-03-03T20:57:11.073Z,0.60
2023-03-03T20:59:43.253Z,0.60
2023-03-03T21:02:43.482Z,0.50
2023-03-03T21:05:18.230Z,0.60
2023-03-03T21:07:58.868Z,0.70
2023-03-03T21:10:29.252Z,0.70
2023-03-03T21:12:57.263Z,0.70
2023-03-03T21:15:26.816Z,0.60
2023-03-03T21:17:55.055Z,0.60
2023-03-03T21:20:30.197Z,0.60
2023-03-03T21:22:59.622Z,0.70
2023-03-03T21:25:44.917Z,0.70
2023-03-03T21:28:31.607Z,0.80
2023-03-03T21:31:10.166Z,0.70
2023-03-03T21:33:47.132Z,0.70
2023-03-03T21:36:18.754Z,0.80
2023-03-03T21:38:46.360Z,0.80
2023-03-03T21:41:14.332Z,0.90
2023-03-03T21:43:51.377Z,0.70
2023-03-03T21:46:23.775Z,0.80
2023-03-03T21:48:58.126Z,0.80
2023-03-03T21:51:26.267Z,0.80
2023-03-03T21:53:53.079Z,0.70
2023-03-03T21:56:19.877Z,0.80
2023-03-03T21:58:46.649Z,0.80
2023-03-03T22:01:13.539Z,0.80
2023-03-03T22:03:40.703Z,0.70
2023-03-03T22:06:07.827Z,0.70
2023-03-03T22:08:36.757Z,0.70
2023-03-03T22:11:06.096Z,0.80
2023-03-03T22:13:34.278Z,0.80
2023-03-03T22:16:01.208Z,0.80
2023-03-03T22:18:33.574Z,0.80
2023-03-03T22:21:05.836Z,0.90
2023-03-03T22:23:33.034Z,0.80
2023-03-03T22:26:02.297Z,0.90
2023-03-03T22:28:32.308Z,0.70
2023-03-03T22:30:59.130Z,0.60
2023-03-03T22:33:26.008Z,0.70
2023-03-03T22:35:52.847Z,0.70
2023-03-03T22:38:19.646Z,0.70
2023-03-03T22:40:48.698Z,0.80
2023-03-03T22:43:15.452Z,0.80
2023-03-03T22:45:42.248Z,0.70
2023-03-03T22:48:09.072Z,0.80
2023-03-03T22:50:39.529Z,0.80
2023-03-03T22:53:07.006Z,0.90
2023-03-03T22:55:37.246Z,0.80
2023-03-03T22:58:04.715Z,0.80
2023-03-03T23:00:33.736Z,0.80
2023-03-03T23:03:03.067Z,0.90
2023-03-03T23:05:32.285Z,0.80
2023-03-03T23:08:01.516Z,0.90
2023-03-03T23:10:28.329Z,0.90
2023-03-03T23:12:55.098Z,0.80
2023-03-03T23:15:24.268Z,0.80
2023-03-03T23:17:51.178Z,0.80
2023-03-03T23:20:25.221Z,0.90
2023-03-03T23:22:56.792Z,0.90
2023-03-03T23:25:28.787Z,0.90
2023-03-03T23:27:55.795Z,0.80
2023-03-03T23:30:22.711Z,0.80
2023-03-03T23:32:49.644Z,0.90
2023-03-03T23:35:16.688Z,0.80
2023-03-03T23:37:43.603Z,0.80
2023-03-03T23:40:11.238Z,0.80
2023-03-03T23:42:38.036Z,0.80
2023-03-03T23:45:08.581Z,0.80
2023-03-03T23:47:35.431Z,0.70
2023-03-03T23:50:02.206Z,0.80
2023-03-03T23:52:29.073Z,0.90
2023-03-03T23:54:58.376Z,0.90
2023-03-03T23:57:27.411Z,0.90
2023-03-03T23:59:54.238Z,0.90
